sensor_id;sensor_type;location;lat;lon;timestamp;pressure;altitude;pressure_sealevel;temperature;humidity
6194;BME280;3130;41.564;23.280;2022-12-11T00:01:16;97109.31;;;17.21;91.43
6194;BME280;3130;41.564;23.280;2022-12-11T00:03:43;97100.38;;;17.09;92.36
6194;BME280;3130;41.564;23.280;2022-12-11T00:06:12;97013.94;;;16.59;93.49
6194;BME280;3130;41.564;23.280;2022-12-11T00:08:40;97080.94;;;16.91;95.50
6194;BME280;3130;41.564;23.280;2022-12-11T00:11:07;97017.28;;;16.45;96.39
6194;BME280;3130;41.564;23.280;2022-12-11T00:13:34;97066.28;;;16.83;96.00
6194;BME280;3130;41.564;23.280;2022-12-11T00:16:03;97040.50;;;16.75;95.46
6194;BME280;3130;41.564;23.280;2022-12-11T00:18:30;97060.94;;;16.85;94.64
6194;BME280;3130;41.564;23.280;2022-12-11T00:20:59;97047.56;;;16.96;95.01
6194;BME280;3130;41.564;23.280;2022-12-11T00:23:26;97037.22;;;16.96;94.82
6194;BME280;3130;41.564;23.280;2022-12-11T00:25:54;97027.38;;;16.91;95.15
6194;BME280;3130;41.564;23.280;2022-12-11T00:28:21;97038.63;;;16.98;95.43
6194;BME280;3130;41.564;23.280;2022-12-11T00:30:50;97045.41;;;16.99;95.23
6194;BME280;3130;41.564;23.280;2022-12-11T00:33:19;97047.94;;;17.07;93.15
6194;BME280;3130;41.564;23.280;2022-12-11T00:35:46;97062.31;;;17.10;92.79
6194;BME280;3130;41.564;23.280;2022-12-11T00:38:14;97052.06;;;17.02;93.78
6194;BME280;3130;41.564;23.280;2022-12-11T00:40:42;97046.69;;;17.03;93.87
6194;BME280;3130;41.564;23.280;2022-12-11T00:43:09;97032.31;;;17.01;93.39
6194;BME280;3130;41.564;23.280;2022-12-11T00:45:36;97043.41;;;17.09;93.24
6194;BME280;3130;41.564;23.280;2022-12-11T00:48:04;97047.41;;;17.12;93.66
6194;BME280;3130;41.564;23.280;2022-12-11T00:50:33;97046.63;;;17.11;93.98
6194;BME280;3130;41.564;23.280;2022-12-11T00:53:01;97050.97;;;17.11;93.83
6194;BME280;3130;41.564;23.280;2022-12-11T00:55:28;97049.56;;;17.08;94.12
6194;BME280;3130;41.564;23.280;2022-12-11T00:57:55;97059.09;;;17.08;94.51
6194;BME280;3130;41.564;23.280;2022-12-11T01:00:23;97045.00;;;17.10;94.68
6194;BME280;3130;41.564;23.280;2022-12-11T01:02:50;97039.00;;;17.10;93.84
6194;BME280;3130;41.564;23.280;2022-12-11T01:05:17;97048.72;;;17.08;92.81
6194;BME280;3130;41.564;23.280;2022-12-11T01:07:46;97039.72;;;17.18;90.94
6194;BME280;3130;41.564;23.280;2022-12-11T01:10:14;97047.06;;;17.29;90.15
6194;BME280;3130;41.564;23.280;2022-12-11T01:12:49;97057.28;;;17.30;90.40
6194;BME280;3130;41.564;23.280;2022-12-11T01:15:16;97060.94;;;17.36;90.25
6194;BME280;3130;41.564;23.280;2022-12-11T01:17:43;97049.59;;;17.37;90.11
6194;BME280;3130;41.564;23.280;2022-12-11T01:20:11;97019.97;;;17.17;89.43
6194;BME280;3130;41.564;23.280;2022-12-11T01:22:38;97045.81;;;17.39;89.73
6194;BME280;3130;41.564;23.280;2022-12-11T01:25:07;97040.84;;;17.38;88.66
6194;BME280;3130;41.564;23.280;2022-12-11T01:27:35;97032.78;;;17.47;86.68
6194;BME280;3130;41.564;23.280;2022-12-11T01:30:03;97028.88;;;17.51;86.88
6194;BME280;3130;41.564;23.280;2022-12-11T01:32:32;96992.94;;;17.34;87.45
6194;BME280;3130;41.564;23.280;2022-12-11T01:35:01;97035.66;;;17.52;88.23
6194;BME280;3130;41.564;23.280;2022-12-11T01:37:28;97010.28;;;17.48;88.82
6194;BME280;3130;41.564;23.280;2022-12-11T01:39:55;96959.06;;;17.07;90.25
6194;BME280;3130;41.564;23.280;2022-12-11T01:42:24;96995.63;;;17.40;90.48
6194;BME280;3130;41.564;23.280;2022-12-11T01:45:21;97022.41;;;17.33;90.49
6194;BME280;3130;41.564;23.280;2022-12-11T01:47:50;97037.34;;;17.31;91.05
6194;BME280;3130;41.564;23.280;2022-12-11T01:50:18;96978.19;;;16.91;92.37
6194;BME280;3130;41.564;23.280;2022-12-11T01:52:46;97029.91;;;17.14;93.38
6194;BME280;3130;41.564;23.280;2022-12-11T01:55:15;97021.84;;;17.09;94.54
6194;BME280;3130;41.564;23.280;2022-12-11T01:57:46;96987.94;;;16.89;96.19
6194;BME280;3130;41.564;23.280;2022-12-11T02:00:16;97015.31;;;16.98;96.47
6194;BME280;3130;41.564;23.280;2022-12-11T02:02:43;97016.41;;;16.89;96.63
6194;BME280;3130;41.564;23.280;2022-12-11T02:05:11;97017.53;;;16.87;96.61
6194;BME280;3130;41.564;23.280;2022-12-11T02:07:40;97031.06;;;16.97;97.50
6194;BME280;3130;41.564;23.280;2022-12-11T02:10:08;97033.44;;;16.98;96.93
6194;BME280;3130;41.564;23.280;2022-12-11T02:12:41;97030.22;;;16.96;96.90
6194;BME280;3130;41.564;23.280;2022-12-11T02:15:24;96981.38;;;16.64;97.29
6194;BME280;3130;41.564;23.280;2022-12-11T02:18:02;97013.81;;;16.89;97.93
6194;BME280;3130;41.564;23.280;2022-12-11T02:20:37;96996.47;;;16.75;97.97
6194;BME280;3130;41.564;23.280;2022-12-11T02:26:24;97007.72;;;16.82;98.07
6194;BME280;3130;41.564;23.280;2022-12-11T02:29:00;97003.88;;;16.78;98.05
6194;BME280;3130;41.564;23.280;2022-12-11T02:31:33;96989.41;;;16.69;98.47
6194;BME280;3130;41.564;23.280;2022-12-11T02:34:05;97003.44;;;16.75;98.82
6194;BME280;3130;41.564;23.280;2022-12-11T02:36:37;96999.13;;;16.67;98.86
6194;BME280;3130;41.564;23.280;2022-12-11T02:39:08;97016.56;;;16.73;99.30
6194;BME280;3130;41.564;23.280;2022-12-11T02:41:38;97010.03;;;16.63;99.22
6194;BME280;3130;41.564;23.280;2022-12-11T02:44:09;96968.72;;;16.32;99.11
6194;BME280;3130;41.564;23.280;2022-12-11T02:46:39;97036.78;;;16.70;98.70
6194;BME280;3130;41.564;23.280;2022-12-11T02:49:07;97058.13;;;16.72;98.25
6194;BME280;3130;41.564;23.280;2022-12-11T02:51:39;97045.56;;;16.69;98.19
6194;BME280;3130;41.564;23.280;2022-12-11T02:54:10;97063.16;;;16.73;98.47
6194;BME280;3130;41.564;23.280;2022-12-11T02:56:42;97066.53;;;16.74;98.54
6194;BME280;3130;41.564;23.280;2022-12-11T02:59:15;97070.44;;;16.70;98.83
6194;BME280;3130;41.564;23.280;2022-12-11T03:01:44;97069.47;;;16.71;99.07
6194;BME280;3130;41.564;23.280;2022-12-11T03:04:12;97066.28;;;16.69;99.18
6194;BME280;3130;41.564;23.280;2022-12-11T03:06:42;97069.66;;;16.69;99.28
6194;BME280;3130;41.564;23.280;2022-12-11T03:09:11;97072.41;;;16.68;99.47
6194;BME280;3130;41.564;23.280;2022-12-11T03:11:38;97082.59;;;16.69;99.37
6194;BME280;3130;41.564;23.280;2022-12-11T03:14:07;97085.00;;;16.71;99.02
6194;BME280;3130;41.564;23.280;2022-12-11T03:16:36;97055.22;;;16.52;99.23
6194;BME280;3130;41.564;23.280;2022-12-11T03:19:10;97084.38;;;16.69;98.65
6194;BME280;3130;41.564;23.280;2022-12-11T03:21:43;97086.78;;;16.70;98.63
6194;BME280;3130;41.564;23.280;2022-12-11T03:24:14;97086.78;;;16.70;98.22
6194;BME280;3130;41.564;23.280;2022-12-11T03:26:49;97081.44;;;16.72;98.03
6194;BME280;3130;41.564;23.280;2022-12-11T03:29:23;97077.84;;;16.73;98.02
6194;BME280;3130;41.564;23.280;2022-12-11T03:31:56;97080.28;;;16.74;97.65
6194;BME280;3130;41.564;23.280;2022-12-11T03:34:29;97074.13;;;16.75;96.97
6194;BME280;3130;41.564;23.280;2022-12-11T03:36:58;97053.47;;;16.67;96.19
6194;BME280;3130;41.564;23.280;2022-12-11T03:39:30;97023.84;;;16.55;95.78
6194;BME280;3130;41.564;23.280;2022-12-11T03:42:00;97068.09;;;16.83;95.60
6194;BME280;3130;41.564;23.280;2022-12-11T03:44:28;97061.09;;;16.83;95.34
6194;BME280;3130;41.564;23.280;2022-12-11T03:47:00;96979.50;;;16.36;94.42
6194;BME280;3130;41.564;23.280;2022-12-11T03:49:33;97072.19;;;16.92;93.74
6194;BME280;3130;41.564;23.280;2022-12-11T03:52:02;97046.63;;;16.74;93.92
6194;BME280;3130;41.564;23.280;2022-12-11T03:54:30;97059.06;;;16.79;94.12
6194;BME280;3130;41.564;23.280;2022-12-11T03:57:00;97048.06;;;16.77;94.17
6194;BME280;3130;41.564;23.280;2022-12-11T03:59:29;96995.78;;;16.44;93.92
6194;BME280;3130;41.564;23.280;2022-12-11T04:01:57;97071.84;;;16.95;94.05
6194;BME280;3130;41.564;23.280;2022-12-11T04:04:25;97058.91;;;16.95;93.69
6194;BME280;3130;41.564;23.280;2022-12-11T04:06:52;96979.66;;;16.42;93.46
6194;BME280;3130;41.564;23.280;2022-12-11T04:09:19;97052.75;;;16.96;93.41
6194;BME280;3130;41.564;23.280;2022-12-11T04:11:46;97049.38;;;16.95;93.32
6194;BME280;3130;41.564;23.280;2022-12-11T04:14:13;96998.50;;;16.65;93.37
6194;BME280;3130;41.564;23.280;2022-12-11T04:16:59;97054.53;;;16.95;92.77
6194;BME280;3130;41.564;23.280;2022-12-11T04:19:28;97056.31;;;16.95;92.60
6194;BME280;3130;41.564;23.280;2022-12-11T04:22:14;97064.44;;;16.92;93.27
6194;BME280;3130;41.564;23.280;2022-12-11T04:25:02;97061.06;;;16.91;93.53
6194;BME280;3130;41.564;23.280;2022-12-11T04:27:30;97046.91;;;16.79;93.21
6194;BME280;3130;41.564;23.280;2022-12-11T04:30:18;97066.91;;;16.85;93.51
6194;BME280;3130;41.564;23.280;2022-12-11T04:32:46;97057.72;;;16.83;94.16
6194;BME280;3130;41.564;23.280;2022-12-11T04:35:15;97064.88;;;16.81;93.87
6194;BME280;3130;41.564;23.280;2022-12-11T04:37:42;97064.03;;;16.80;93.44
6194;BME280;3130;41.564;23.280;2022-12-11T04:40:11;97061.94;;;16.84;93.36
6194;BME280;3130;41.564;23.280;2022-12-11T04:42:39;97058.34;;;16.85;92.75
6194;BME280;3130;41.564;23.280;2022-12-11T04:45:08;97070.66;;;16.83;92.78
6194;BME280;3130;41.564;23.280;2022-12-11T04:47:35;97021.97;;;16.64;92.66
6194;BME280;3130;41.564;23.280;2022-12-11T04:50:04;97059.34;;;16.84;92.35
6194;BME280;3130;41.564;23.280;2022-12-11T04:52:33;97053.97;;;16.85;92.11
6194;BME280;3130;41.564;23.280;2022-12-11T04:55:00;97047.63;;;16.88;91.64
6194;BME280;3130;41.564;23.280;2022-12-11T04:57:27;97029.66;;;16.72;91.57
6194;BME280;3130;41.564;23.280;2022-12-11T04:59:54;97056.22;;;16.88;91.35
6194;BME280;3130;41.564;23.280;2022-12-11T05:02:21;96968.72;;;16.32;90.98
6194;BME280;3130;41.564;23.280;2022-12-11T05:04:48;97062.19;;;16.89;90.99
6194;BME280;3130;41.564;23.280;2022-12-11T05:07:15;97025.34;;;16.64;90.70
6194;BME280;3130;41.564;23.280;2022-12-11T05:09:43;97068.81;;;16.91;90.79
6194;BME280;3130;41.564;23.280;2022-12-11T05:12:10;97081.75;;;16.91;90.70
6194;BME280;3130;41.564;23.280;2022-12-11T05:14:37;97079.19;;;16.91;91.06
6194;BME280;3130;41.564;23.280;2022-12-11T05:17:04;97084.16;;;16.93;90.17
6194;BME280;3130;41.564;23.280;2022-12-11T05:19:31;97062.81;;;16.91;90.05
6194;BME280;3130;41.564;23.280;2022-12-11T05:21:58;97059.25;;;16.92;89.77
6194;BME280;3130;41.564;23.280;2022-12-11T05:24:25;97062.66;;;16.92;89.72
6194;BME280;3130;41.564;23.280;2022-12-11T05:26:54;97056.84;;;16.90;89.65
6194;BME280;3130;41.564;23.280;2022-12-11T05:29:21;97066.72;;;16.87;89.64
6194;BME280;3130;41.564;23.280;2022-12-11T05:31:49;97057.97;;;16.73;89.27
6194;BME280;3130;41.564;23.280;2022-12-11T05:34:17;97069.50;;;16.85;88.92
6194;BME280;3130;41.564;23.280;2022-12-11T05:36:48;97079.19;;;16.91;88.69
6194;BME280;3130;41.564;23.280;2022-12-11T05:39:24;96995.97;;;16.43;88.11
6194;BME280;3130;41.564;23.280;2022-12-11T05:41:56;97081.56;;;16.93;87.89
6194;BME280;3130;41.564;23.280;2022-12-11T05:44:23;97093.53;;;16.94;87.57
6194;BME280;3130;41.564;23.280;2022-12-11T05:46:50;97092.56;;;16.95;87.42
6194;BME280;3130;41.564;23.280;2022-12-11T05:49:18;97078.53;;;16.89;86.33
6194;BME280;3130;41.564;23.280;2022-12-11T05:51:45;97090.78;;;16.95;85.63
6194;BME280;3130;41.564;23.280;2022-12-11T05:54:12;97087.84;;;16.98;85.18
6194;BME280;3130;41.564;23.280;2022-12-11T05:56:39;97089.00;;;16.96;84.71
6194;BME280;3130;41.564;23.280;2022-12-11T05:59:08;97045.56;;;16.69;84.93
6194;BME280;3130;41.564;23.280;2022-12-11T06:01:36;97102.22;;;17.01;85.12
6194;BME280;3130;41.564;23.280;2022-12-11T06:04:05;97101.59;;;16.99;84.62
6194;BME280;3130;41.564;23.280;2022-12-11T06:06:32;97093.63;;;17.00;84.27
6194;BME280;3130;41.564;23.280;2022-12-11T06:09:00;97098.66;;;17.02;84.53
6194;BME280;3130;41.564;23.280;2022-12-11T06:11:29;97096.56;;;16.97;84.42
6194;BME280;3130;41.564;23.280;2022-12-11T06:13:56;97107.84;;;17.04;84.27
6194;BME280;3130;41.564;23.280;2022-12-11T06:16:25;97110.09;;;17.07;83.96
6194;BME280;3130;41.564;23.280;2022-12-11T06:18:52;97105.25;;;17.04;83.41
6194;BME280;3130;41.564;23.280;2022-12-11T06:21:21;97110.25;;;17.06;83.42
6194;BME280;3130;41.564;23.280;2022-12-11T06:23:49;97041.97;;;16.70;83.50
6194;BME280;3130;41.564;23.280;2022-12-11T06:26:17;97102.34;;;17.07;83.17
6194;BME280;3130;41.564;23.280;2022-12-11T06:28:45;97093.59;;;17.08;82.93
6194;BME280;3130;41.564;23.280;2022-12-11T06:31:12;97054.84;;;16.78;82.51
6194;BME280;3130;41.564;23.280;2022-12-11T06:33:41;97112.34;;;17.10;82.71
6194;BME280;3130;41.564;23.280;2022-12-11T06:36:10;97102.22;;;17.01;82.07
6194;BME280;3130;41.564;23.280;2022-12-11T06:38:38;97083.75;;;17.04;81.18
6194;BME280;3130;41.564;23.280;2022-12-11T06:41:05;97093.28;;;17.03;80.68
6194;BME280;3130;41.564;23.280;2022-12-11T06:43:34;97103.50;;;17.19;80.80
6194;BME280;3130;41.564;23.280;2022-12-11T06:46:03;97115.91;;;17.23;80.71
6194;BME280;3130;41.564;23.280;2022-12-11T06:48:30;97080.00;;;17.06;81.04
6194;BME280;3130;41.564;23.280;2022-12-11T06:50:59;97104.56;;;17.24;80.32
6194;BME280;3130;41.564;23.280;2022-12-11T06:53:30;97107.44;;;17.29;79.84
6194;BME280;3130;41.564;23.280;2022-12-11T06:56:01;97106.94;;;17.34;79.55
6194;BME280;3130;41.564;23.280;2022-12-11T06:58:28;97026.75;;;16.89;78.80
6194;BME280;3130;41.564;23.280;2022-12-11T07:00:55;97105.25;;;17.41;78.50
6194;BME280;3130;41.564;23.280;2022-12-11T07:03:22;97110.53;;;17.47;77.75
6194;BME280;3130;41.564;23.280;2022-12-11T07:05:50;97072.59;;;17.17;77.39
6194;BME280;3130;41.564;23.280;2022-12-11T07:08:18;97131.34;;;17.54;77.05
6194;BME280;3130;41.564;23.280;2022-12-11T07:10:45;97135.03;;;17.59;76.54
6194;BME280;3130;41.564;23.280;2022-12-11T07:13:12;97137.63;;;17.59;77.27
6194;BME280;3130;41.564;23.280;2022-12-11T07:15:40;97133.25;;;17.60;77.46
6194;BME280;3130;41.564;23.280;2022-12-11T07:18:08;97125.03;;;17.56;77.75
6194;BME280;3130;41.564;23.280;2022-12-11T07:20:35;97119.03;;;17.56;77.93
6194;BME280;3130;41.564;23.280;2022-12-11T07:23:03;97118.94;;;17.49;78.18
6194;BME280;3130;41.564;23.280;2022-12-11T07:25:31;97113.50;;;17.59;78.14
6194;BME280;3130;41.564;23.280;2022-12-11T07:27:58;97106.50;;;17.59;78.52
6194;BME280;3130;41.564;23.280;2022-12-11T07:30:25;96998.38;;;16.96;77.75
6194;BME280;3130;41.564;23.280;2022-12-11T07:32:52;97098.22;;;17.64;78.61
6194;BME280;3130;41.564;23.280;2022-12-11T07:35:19;97093.81;;;17.64;77.92
6194;BME280;3130;41.564;23.280;2022-12-11T07:37:46;97106.88;;;17.71;77.66
6194;BME280;3130;41.564;23.280;2022-12-11T07:40:14;97105.19;;;17.78;77.18
6194;BME280;3130;41.564;23.280;2022-12-11T07:42:42;97069.59;;;17.72;76.38
6194;BME280;3130;41.564;23.280;2022-12-11T07:45:10;97097.47;;;17.99;76.41
6194;BME280;3130;41.564;23.280;2022-12-11T07:47:37;97103.78;;;18.11;76.49
6194;BME280;3130;41.564;23.280;2022-12-11T07:50:04;97113.25;;;18.18;75.36
6194;BME280;3130;41.564;23.280;2022-12-11T07:52:32;97104.41;;;18.27;75.07
6194;BME280;3130;41.564;23.280;2022-12-11T07:54:59;97116.97;;;18.44;73.80
6194;BME280;3130;41.564;23.280;2022-12-11T07:57:26;97112.78;;;18.64;73.22
6194;BME280;3130;41.564;23.280;2022-12-11T07:59:55;97105.59;;;18.87;72.80
6194;BME280;3130;41.564;23.280;2022-12-11T08:02:22;97112.56;;;19.08;72.58
6194;BME280;3130;41.564;23.280;2022-12-11T08:04:49;97103.25;;;19.13;71.98
6194;BME280;3130;41.564;23.280;2022-12-11T08:07:16;97100.38;;;19.08;70.50
6194;BME280;3130;41.564;23.280;2022-12-11T08:09:43;97069.25;;;18.87;70.51
6194;BME280;3130;41.564;23.280;2022-12-11T08:12:11;97082.03;;;18.89;71.22
6194;BME280;3130;41.564;23.280;2022-12-11T08:14:38;97074.75;;;18.78;71.56
6194;BME280;3130;41.564;23.280;2022-12-11T08:17:07;97068.81;;;18.63;71.77
6194;BME280;3130;41.564;23.280;2022-12-11T08:19:34;97060.81;;;18.58;71.74
6194;BME280;3130;41.564;23.280;2022-12-11T08:22:01;97084.25;;;18.92;72.36
6194;BME280;3130;41.564;23.280;2022-12-11T08:24:28;97079.38;;;19.03;70.37
6194;BME280;3130;41.564;23.280;2022-12-11T08:26:55;97007.56;;;18.68;70.54
6194;BME280;3130;41.564;23.280;2022-12-11T08:29:22;97063.19;;;19.28;70.33
6194;BME280;3130;41.564;23.280;2022-12-11T08:31:49;97047.47;;;19.16;69.63
6194;BME280;3130;41.564;23.280;2022-12-11T08:34:18;96997.56;;;18.93;69.74
6194;BME280;3130;41.564;23.280;2022-12-11T08:36:45;96995.75;;;18.93;69.85
6194;BME280;3130;41.564;23.280;2022-12-11T08:39:12;97054.41;;;19.29;69.20
6194;BME280;3130;41.564;23.280;2022-12-11T08:41:39;97062.91;;;19.51;69.46
6194;BME280;3130;41.564;23.280;2022-12-11T08:44:10;97050.84;;;19.77;69.10
6194;BME280;3130;41.564;23.280;2022-12-11T08:46:37;97053.38;;;20.05;67.39
6194;BME280;3130;41.564;23.280;2022-12-11T08:49:04;97048.59;;;20.21;66.92
6194;BME280;3130;41.564;23.280;2022-12-11T08:51:33;97045.03;;;20.29;66.44
6194;BME280;3130;41.564;23.280;2022-12-11T08:54:00;97032.19;;;20.27;65.61
6194;BME280;3130;41.564;23.280;2022-12-11T08:56:28;97040.25;;;20.45;65.55
6194;BME280;3130;41.564;23.280;2022-12-11T08:58:58;97052.25;;;20.39;64.78
6194;BME280;3130;41.564;23.280;2022-12-11T09:01:26;97057.00;;;20.23;64.62
6194;BME280;3130;41.564;23.280;2022-12-11T09:03:55;97032.66;;;19.90;65.63
6194;BME280;3130;41.564;23.280;2022-12-11T09:06:24;97051.00;;;20.10;67.11
6194;BME280;3130;41.564;23.280;2022-12-11T09:08:53;96988.75;;;19.61;67.14
6194;BME280;3130;41.564;23.280;2022-12-11T09:11:23;97043.72;;;19.99;67.38
6194;BME280;3130;41.564;23.280;2022-12-11T09:13:53;97012.44;;;19.86;68.17
6194;BME280;3130;41.564;23.280;2022-12-11T09:16:23;97029.47;;;19.95;67.86
6194;BME280;3130;41.564;23.280;2022-12-11T09:18:52;97035.22;;;19.77;67.38
6194;BME280;3130;41.564;23.280;2022-12-11T09:21:21;96989.75;;;19.20;68.24
6194;BME280;3130;41.564;23.280;2022-12-11T09:23:49;97029.44;;;19.35;68.69
6194;BME280;3130;41.564;23.280;2022-12-11T09:26:20;97027.78;;;19.27;70.09
6194;BME280;3130;41.564;23.280;2022-12-11T09:28:48;97019.72;;;19.16;70.27
6194;BME280;3130;41.564;23.280;2022-12-11T09:31:19;96955.22;;;18.71;70.94
6194;BME280;3130;41.564;23.280;2022-12-11T09:33:49;97025.41;;;19.05;70.86
6194;BME280;3130;41.564;23.280;2022-12-11T09:36:17;97027.38;;;18.97;71.17
6194;BME280;3130;41.564;23.280;2022-12-11T09:38:45;97021.16;;;18.98;70.96
6194;BME280;3130;41.564;23.280;2022-12-11T09:41:38;97021.25;;;18.83;71.42
6194;BME280;3130;41.564;23.280;2022-12-11T09:44:17;97027.69;;;18.87;71.31
6194;BME280;3130;41.564;23.280;2022-12-11T09:46:46;97004.56;;;18.71;71.46
6194;BME280;3130;41.564;23.280;2022-12-11T09:49:20;97021.25;;;18.83;71.30
6194;BME280;3130;41.564;23.280;2022-12-11T09:51:52;96961.22;;;18.44;71.47
6194;BME280;3130;41.564;23.280;2022-12-11T09:54:25;97018.84;;;18.82;72.08
6194;BME280;3130;41.564;23.280;2022-12-11T09:57:00;97018.63;;;18.77;72.45
6194;BME280;3130;41.564;23.280;2022-12-11T09:59:32;97018.38;;;18.72;72.27
6194;BME280;3130;41.564;23.280;2022-12-11T10:02:15;97020.50;;;18.62;72.86
6194;BME280;3130;41.564;23.280;2022-12-11T10:04:54;97006.41;;;18.50;72.95
6194;BME280;3130;41.564;23.280;2022-12-11T10:07:29;96997.38;;;18.46;73.00
6194;BME280;3130;41.564;23.280;2022-12-11T10:10:02;96989.41;;;18.47;73.63
6194;BME280;3130;41.564;23.280;2022-12-11T10:12:41;96978.22;;;18.47;73.73
6194;BME280;3130;41.564;23.280;2022-12-11T10:15:23;96993.34;;;18.64;73.35
6194;BME280;3130;41.564;23.280;2022-12-11T10:17:54;96993.97;;;18.66;73.43
6194;BME280;3130;41.564;23.280;2022-12-11T10:20:25;96986.59;;;18.70;73.86
6194;BME280;3130;41.564;23.280;2022-12-11T10:22:56;96995.78;;;18.72;73.22
6194;BME280;3130;41.564;23.280;2022-12-11T10:25:26;96983.22;;;18.69;72.81
6194;BME280;3130;41.564;23.280;2022-12-11T10:28:09;96970.91;;;18.57;73.46
6194;BME280;3130;41.564;23.280;2022-12-11T10:30:40;96987.41;;;18.70;73.05
6194;BME280;3130;41.564;23.280;2022-12-11T10:33:17;96921.59;;;18.29;73.66
6194;BME280;3130;41.564;23.280;2022-12-11T10:35:48;96986.34;;;18.65;73.28
6194;BME280;3130;41.564;23.280;2022-12-11T10:38:20;96961.09;;;18.52;73.65
6194;BME280;3130;41.564;23.280;2022-12-11T10:40:51;96987.34;;;18.64;73.69
6194;BME280;3130;41.564;23.280;2022-12-11T10:43:31;96925.25;;;18.20;73.72
6194;BME280;3130;41.564;23.280;2022-12-11T10:45:59;96961.81;;;18.40;73.75
6194;BME280;3130;41.564;23.280;2022-12-11T10:48:26;96978.03;;;18.48;74.53
6194;BME280;3130;41.564;23.280;2022-12-11T10:50:57;96934.66;;;18.21;74.38
6194;BME280;3130;41.564;23.280;2022-12-11T10:53:25;96914.63;;;18.09;74.75
6194;BME280;3130;41.564;23.280;2022-12-11T10:55:54;96889.72;;;17.94;75.24
6194;BME280;3130;41.564;23.280;2022-12-11T10:58:28;96895.09;;;17.92;75.11
6194;BME280;3130;41.564;23.280;2022-12-11T11:01:06;96976.38;;;18.41;75.29
6194;BME280;3130;41.564;23.280;2022-12-11T11:03:35;96968.97;;;18.38;75.24
6194;BME280;3130;41.564;23.280;2022-12-11T11:06:14;96961.75;;;18.33;76.39
6194;BME280;3130;41.564;23.280;2022-12-11T11:08:44;96923.81;;;18.12;76.61
6194;BME280;3130;41.564;23.280;2022-12-11T11:11:23;96959.16;;;18.33;76.14
6194;BME280;3130;41.564;23.280;2022-12-11T11:14:04;96913.94;;;18.01;77.06
6194;BME280;3130;41.564;23.280;2022-12-11T11:16:34;96923.06;;;17.97;77.02
6194;BME280;3130;41.564;23.280;2022-12-11T11:19:03;96973.25;;;18.24;77.95
6194;BME280;3130;41.564;23.280;2022-12-11T11:21:32;96968.75;;;18.18;78.61
6194;BME280;3130;41.564;23.280;2022-12-11T11:24:00;96943.88;;;18.03;78.84
6194;BME280;3130;41.564;23.280;2022-12-11T11:26:30;96966.09;;;18.12;79.28
6194;BME280;3130;41.564;23.280;2022-12-11T11:28:59;96961.31;;;18.09;78.69
6194;BME280;3130;41.564;23.280;2022-12-11T11:31:31;96967.91;;;18.12;79.67
6194;BME280;3130;41.564;23.280;2022-12-11T11:34:01;96957.63;;;18.04;79.89
6194;BME280;3130;41.564;23.280;2022-12-11T11:36:30;96966.09;;;18.12;80.28
6194;BME280;3130;41.564;23.280;2022-12-11T11:39:09;96956.13;;;18.09;80.75
6194;BME280;3130;41.564;23.280;2022-12-11T11:41:45;96963.94;;;17.95;81.15
6194;BME280;3130;41.564;23.280;2022-12-11T11:44:23;96964.13;;;17.93;82.20
6194;BME280;3130;41.564;23.280;2022-12-11T11:46:56;96963.25;;;17.86;83.16
6194;BME280;3130;41.564;23.280;2022-12-11T11:49:34;96958.19;;;17.78;83.79
6194;BME280;3130;41.564;23.280;2022-12-11T11:52:11;96960.09;;;17.70;85.17
6194;BME280;3130;41.564;23.280;2022-12-11T11:54:47;96909.25;;;17.33;85.90
6194;BME280;3130;41.564;23.280;2022-12-11T11:57:22;96947.88;;;17.64;87.04
6194;BME280;3130;41.564;23.280;2022-12-11T11:59:54;96951.81;;;17.60;87.64
6194;BME280;3130;41.564;23.280;2022-12-11T12:02:24;96868.34;;;17.00;88.42
6194;BME280;3130;41.564;23.280;2022-12-11T12:04:51;96958.25;;;17.49;89.60
6194;BME280;3130;41.564;23.280;2022-12-11T12:07:28;96914.53;;;17.11;90.84
6194;BME280;3130;41.564;23.280;2022-12-11T12:10:05;96965.63;;;17.31;92.32
6194;BME280;3130;41.564;23.280;2022-12-11T12:12:43;96966.50;;;17.24;93.94
6194;BME280;3130;41.564;23.280;2022-12-11T12:15:22;96966.94;;;17.13;94.63
6194;BME280;3130;41.564;23.280;2022-12-11T12:17:54;96968.72;;;16.98;94.98
6194;BME280;3130;41.564;23.280;2022-12-11T12:20:31;96978.91;;;16.85;95.84
6194;BME280;3130;41.564;23.280;2022-12-11T12:26:05;96982.25;;;16.57;98.18
6194;BME280;3130;41.564;23.280;2022-12-11T12:28:39;96989.84;;;16.58;99.23
6194;BME280;3130;41.564;23.280;2022-12-11T12:31:28;96890.53;;;15.86;100.00
6194;BME280;3130;41.564;23.280;2022-12-11T12:34:03;96964.03;;;16.28;99.96
6194;BME280;3130;41.564;23.280;2022-12-11T12:36:36;96891.03;;;15.81;100.00
6194;BME280;3130;41.564;23.280;2022-12-11T12:39:15;96982.69;;;16.46;100.00
6194;BME280;3130;41.564;23.280;2022-12-11T12:41:50;96986.69;;;16.48;100.00
6194;BME280;3130;41.564;23.280;2022-12-11T12:44:22;96979.47;;;16.44;100.00
6194;BME280;3130;41.564;23.280;2022-12-11T12:46:59;96988.94;;;16.51;100.00
6194;BME280;3130;41.564;23.280;2022-12-11T12:49:37;96974.09;;;16.45;100.00
6194;BME280;3130;41.564;23.280;2022-12-11T12:52:11;96986.78;;;16.55;100.00
6194;BME280;3130;41.564;23.280;2022-12-11T12:54:39;96983.41;;;16.54;99.86
6194;BME280;3130;41.564;23.280;2022-12-11T12:57:28;96988.25;;;16.57;99.50
6194;BME280;3130;41.564;23.280;2022-12-11T12:59:55;96985.81;;;16.56;99.30
6194;BME280;3130;41.564;23.280;2022-12-11T13:02:24;96897.34;;;16.01;99.31
6194;BME280;3130;41.564;23.280;2022-12-11T13:04:57;96982.59;;;16.54;99.29
6194;BME280;3130;41.564;23.280;2022-12-11T13:07:27;96990.34;;;16.54;99.41
6194;BME280;3130;41.564;23.280;2022-12-11T13:09:58;96994.53;;;16.55;99.66
6194;BME280;3130;41.564;23.280;2022-12-11T13:12:46;96991.84;;;16.48;98.84
6194;BME280;3130;41.564;23.280;2022-12-11T13:15:33;97005.09;;;16.53;98.04
6194;BME280;3130;41.564;23.280;2022-12-11T13:18:05;96992.72;;;16.41;97.74
6194;BME280;3130;41.564;23.280;2022-12-11T13:20:51;96980.34;;;16.28;95.97
6194;BME280;3130;41.564;23.280;2022-12-11T13:23:25;97008.25;;;16.41;96.03
6194;BME280;3130;41.564;23.280;2022-12-11T13:25:55;97010.41;;;16.37;95.54
6194;BME280;3130;41.564;23.280;2022-12-11T13:28:26;97008.50;;;16.31;95.03
6194;BME280;3130;41.564;23.280;2022-12-11T13:31:25;97023.69;;;16.26;94.00
6194;BME280;3130;41.564;23.280;2022-12-11T13:33:56;97028.13;;;16.18;94.24